Time;durP1;ratioP1;P1;durP2;ratioP2;P2;SDS_P1;SDS_P2;PMS_P1;PMS_P2;Temp;Humidity;BMP_temperature;BMP_pressure;BME280_temperature;BME280_humidity;BME280_pressure;Samples;Min_cycle;Max_cycle;Signal;HPM_P1;HPM_P2
2022/08/10 00:02:18;;;;;;;0.20;0.20;;;16.20;99.90;;;;;;5063039;28;20492;-81
2022/08/10 00:04:43;;;;;;;0.20;0.20;;;16.20;99.90;;;;;;5068990;28;20098;-81
2022/08/10 00:07:09;;;;;;;0.20;0.20;;;16.10;99.90;;;;;;5079420;28;20043;-81
2022/08/10 00:09:35;;;;;;;0.10;0.10;;;16.10;99.90;;;;;;5068420;28;20170;-81
2022/08/10 00:12:00;;;;;;;0.10;0.10;;;16.10;99.90;;;;;;5073723;28;20055;-79
2022/08/10 00:14:29;;;;;;;0.17;0.17;;;16.10;99.90;;;;;;5064436;28;20047;-79
2022/08/10 00:16:57;;;;;;;0.10;0.10;;;16.10;99.90;;;;;;5060203;28;20512;-79
2022/08/10 00:19:23;;;;;;;0.13;0.13;;;16.10;99.90;;;;;;5062277;28;20039;-79
2022/08/10 00:21:48;;;;;;;0.10;0.10;;;16.00;99.90;;;;;;5070790;28;20101;-80
2022/08/10 00:24:14;;;;;;;0.10;0.10;;;16.00;99.90;;;;;;5072870;28;20036;-80
2022/08/10 00:26:40;;;;;;;0.20;0.20;;;15.90;99.90;;;;;;5067966;28;20044;-80
2022/08/10 00:29:05;;;;;;;0.10;0.10;;;16.00;99.90;;;;;;5064328;28;20090;-80
2022/08/10 00:31:31;;;;;;;0.10;0.10;;;15.90;99.90;;;;;;5066234;28;20067;-80
2022/08/10 00:33:57;;;;;;;0.20;0.20;;;16.00;99.90;;;;;;5066315;28;20029;-80
2022/08/10 00:36:22;;;;;;;0.10;0.10;;;15.90;99.90;;;;;;5075777;28;20041;-80
2022/08/10 00:38:48;;;;;;;0.10;0.10;;;15.90;99.90;;;;;;5072489;28;20067;-80
2022/08/10 00:41:13;;;;;;;0.20;0.20;;;15.90;99.90;;;;;;5082569;28;20044;-79
2022/08/10 00:43:39;;;;;;;0.20;0.20;;;15.80;99.90;;;;;;5076754;28;20082;-80
2022/08/10 00:46:05;;;;;;;0.10;0.10;;;15.80;99.90;;;;;;5067808;28;20397;-80
2022/08/10 00:48:30;;;;;;;0.17;0.17;;;15.90;99.90;;;;;;5073926;28;20051;-80
2022/08/10 00:50:59;;;;;;;0.20;0.20;;;15.90;99.90;;;;;;5081692;28;20044;-80
2022/08/10 00:53:28;;;;;;;0.20;0.20;;;15.90;99.90;;;;;;5070823;28;20053;-79
2022/08/10 00:55:54;;;;;;;0.20;0.20;;;15.90;99.90;;;;;;5060403;28;20500;-80
2022/08/10 00:58:20;;;;;;;0.20;0.20;;;16.00;99.90;;;;;;5057911;28;20122;-80
2022/08/10 01:00:47;;;;;;;0.20;0.20;;;15.90;99.90;;;;;;5081012;28;20048;-79
2022/08/10 01:03:13;;;;;;;0.20;0.20;;;15.90;99.90;;;;;;5056986;28;20401;-80
2022/08/10 01:06:21;;;;;;;0.20;0.20;;;15.90;99.90;;;;;;5085605;28;20094;-79
2022/08/10 01:08:56;;;;;;;0.20;0.20;;;15.90;99.90;;;;;;5050168;28;20049;-80
2022/08/10 01:11:37;;;;;;;0.13;0.13;;;15.90;99.90;;;;;;5054534;28;20037;-79
2022/08/10 01:14:18;;;;;;;0.10;0.10;;;15.90;99.90;;;;;;5074569;28;20032;-79
2022/08/10 01:16:59;;;;;;;0.20;0.20;;;15.80;99.90;;;;;;5067439;28;20123;-79
2022/08/10 01:19:46;;;;;;;0.20;0.20;;;15.90;99.90;;;;;;5073678;28;20052;-79
2022/08/10 01:22:40;;;;;;;0.20;0.20;;;15.80;99.90;;;;;;5055328;28;20049;-79
2022/08/10 01:25:27;;;;;;;0.20;0.20;;;15.80;99.90;;;;;;5067390;28;20245;-79
2022/08/10 01:28:06;;;;;;;0.20;0.20;;;15.80;99.90;;;;;;5053834;28;20052;-79
2022/08/10 01:30:34;;;;;;;0.20;0.20;;;15.80;99.90;;;;;;5056288;28;20059;-79
2022/08/10 01:33:11;;;;;;;0.10;0.10;;;15.80;99.90;;;;;;5054256;28;20097;-79
2022/08/10 01:35:45;;;;;;;0.20;0.20;;;15.80;99.90;;;;;;5074557;28;20046;-79
2022/08/10 01:38:35;;;;;;;0.10;0.10;;;15.80;99.90;;;;;;5068539;28;20056;-79
2022/08/10 01:41:07;;;;;;;0.20;0.20;;;15.70;99.90;;;;;;5072952;28;20040;-79
2022/08/10 01:43:39;;;;;;;0.20;0.20;;;15.60;99.90;;;;;;5055827;28;20505;-79
2022/08/10 01:46:06;;;;;;;0.10;0.10;;;15.70;99.90;;;;;;5063557;28;20040;-80
2022/08/10 01:48:40;;;;;;;0.20;0.20;;;15.70;99.90;;;;;;5058704;28;20116;-80
2022/08/10 01:51:18;;;;;;;0.20;0.20;;;15.70;99.90;;;;;;5054410;28;20508;-79
2022/08/10 01:54:07;;;;;;;0.10;0.10;;;15.70;99.90;;;;;;5074129;28;20124;-79
2022/08/10 01:56:35;;;;;;;0.20;0.20;;;15.70;99.90;;;;;;5070481;28;20044;-80
2022/08/10 01:59:06;;;;;;;0.20;0.20;;;15.70;99.90;;;;;;5056475;28;20052;-80
2022/08/10 02:01:48;;;;;;;0.20;0.20;;;15.80;99.90;;;;;;5052426;28;20059;-79
2022/08/10 02:04:17;;;;;;;0.17;0.17;;;15.70;99.90;;;;;;5073272;28;20049;-80
2022/08/10 02:06:46;;;;;;;0.20;0.20;;;15.70;99.90;;;;;;5062356;28;20105;-80
2022/08/10 02:09:26;;;;;;;0.20;0.20;;;15.80;99.90;;;;;;5075965;28;20061;-80
2022/08/10 02:11:54;;;;;;;0.20;0.20;;;15.80;99.90;;;;;;5068257;28;20379;-80
2022/08/10 02:14:20;;;;;;;0.20;0.20;;;15.80;99.90;;;;;;5071533;28;20052;-80
2022/08/10 02:16:50;;;;;;;0.15;0.15;;;15.80;99.90;;;;;;5063889;28;20603;-79
2022/08/10 02:19:20;;;;;;;0.20;0.20;;;15.80;99.90;;;;;;5078114;28;20391;-79
2022/08/10 02:21:48;;;;;;;0.20;0.20;;;15.80;99.90;;;;;;5085701;28;20038;-80
2022/08/10 02:24:15;;;;;;;0.17;0.17;;;15.80;99.90;;;;;;5086744;28;20052;-80
2022/08/10 02:26:43;;;;;;;0.10;0.10;;;15.70;99.90;;;;;;5068055;28;20040;-79
2022/08/10 02:29:11;;;;;;;0.20;0.20;;;15.90;99.90;;;;;;5070565;28;20032;-79
2022/08/10 02:31:37;;;;;;;0.20;0.20;;;15.80;99.90;;;;;;5068912;28;20048;-79
2022/08/10 02:34:07;;;;;;;0.15;0.15;;;15.80;99.90;;;;;;5079588;28;20039;-79
2022/08/10 02:36:37;;;;;;;0.10;0.10;;;15.80;99.90;;;;;;5078123;28;20045;-79
2022/08/10 02:39:04;;;;;;;0.20;0.20;;;15.80;99.90;;;;;;5053484;28;20503;-80
2022/08/10 02:41:35;;;;;;;0.20;0.20;;;15.90;99.90;;;;;;5073461;28;20085;-79
2022/08/10 02:44:04;;;;;;;;;;;15.80;99.90;;;;;;5078293;28;20039;-79
2022/08/10 02:46:39;;;;;;;0.20;0.20;;;15.80;99.90;;;;;;5077971;28;19931;-79
2022/08/10 02:49:11;;;;;;;0.10;0.10;;;15.80;99.90;;;;;;5066516;28;20039;-79
2022/08/10 02:51:49;;;;;;;0.20;0.20;;;15.80;99.90;;;;;;5073849;28;20045;-79
2022/08/10 02:54:23;;;;;;;0.10;0.10;;;15.70;99.90;;;;;;5066991;28;20048;-79
2022/08/10 02:57:03;;;;;;;0.20;0.20;;;15.70;99.90;;;;;;5074560;28;20036;-79
2022/08/10 02:59:32;;;;;;;0.20;0.20;;;15.70;99.90;;;;;;5069207;28;20056;-79
2022/08/10 03:02:01;;;;;;;0.20;0.20;;;15.60;99.90;;;;;;5072941;28;20105;-80
2022/08/10 03:04:48;;;;;;;0.20;0.20;;;15.50;99.90;;;;;;5065436;28;20048;-79
2022/08/10 03:07:18;;;;;;;0.20;0.20;;;15.60;99.90;;;;;;5071686;28;20136;-79
2022/08/10 03:09:46;;;;;;;0.10;0.10;;;15.70;99.90;;;;;;5063524;28;20083;-79
2022/08/10 03:12:14;;;;;;;0.17;0.17;;;15.50;99.90;;;;;;5055813;28;21373;-79
2022/08/10 03:14:40;;;;;;;0.20;0.20;;;15.50;99.90;;;;;;5056037;28;21195;-79
2022/08/10 03:17:08;;;;;;;0.20;0.20;;;15.50;99.90;;;;;;5057437;28;20045;-79
2022/08/10 03:19:36;;;;;;;0.15;0.15;;;15.40;99.90;;;;;;5062403;28;20044;-79
2022/08/10 03:22:03;;;;;;;0.13;0.13;;;15.40;99.90;;;;;;5066941;28;20067;-80
2022/08/10 03:24:30;;;;;;;0.20;0.20;;;15.50;99.90;;;;;;5054435;28;20048;-79
2022/08/10 03:26:56;;;;;;;0.20;0.20;;;15.50;99.90;;;;;;5066829;28;20083;-80
2022/08/10 03:29:23;;;;;;;0.15;0.15;;;15.50;99.90;;;;;;5063999;28;20044;-80
2022/08/10 03:31:50;;;;;;;0.17;0.17;;;15.50;99.90;;;;;;5064706;28;20069;-79
2022/08/10 03:34:18;;;;;;;0.20;0.20;;;15.50;99.90;;;;;;5071666;28;20041;-80
2022/08/10 03:36:44;;;;;;;0.10;0.10;;;15.50;99.90;;;;;;5075942;28;20040;-80
2022/08/10 03:39:11;;;;;;;0.10;0.10;;;15.50;99.90;;;;;;5080432;28;20055;-79
2022/08/10 03:41:41;;;;;;;0.20;0.20;;;15.50;99.90;;;;;;5068247;28;20423;-79
2022/08/10 03:44:10;;;;;;;0.17;0.17;;;15.50;99.90;;;;;;5052343;28;20474;-80
2022/08/10 03:46:41;;;;;;;0.17;0.17;;;15.50;99.90;;;;;;5056950;28;20037;-80
2022/08/10 03:49:08;;;;;;;0.10;0.10;;;15.60;99.90;;;;;;5053944;28;20028;-80
2022/08/10 03:51:34;;;;;;;0.10;0.10;;;15.50;99.90;;;;;;5063321;28;20041;-80
2022/08/10 03:54:01;;;;;;;0.10;0.10;;;15.60;99.90;;;;;;5067037;28;20159;-80
2022/08/10 03:56:27;;;;;;;0.20;0.20;;;15.60;99.90;;;;;;5067307;28;20384;-80
2022/08/10 03:58:52;;;;;;;0.20;0.20;;;15.60;99.90;;;;;;5072335;28;20039;-80
2022/08/10 04:01:19;;;;;;;0.20;0.20;;;15.60;99.90;;;;;;5070950;28;20492;-80
2022/08/10 04:03:44;;;;;;;0.20;0.20;;;15.60;99.90;;;;;;5065433;28;20109;-80
2022/08/10 04:06:11;;;;;;;0.20;0.20;;;15.70;99.90;;;;;;5082566;28;20130;-80
2022/08/10 04:08:46;;;;;;;0.20;0.20;;;15.70;99.90;;;;;;5074524;28;20739;-80
2022/08/10 04:11:14;;;;;;;0.13;0.13;;;15.70;99.90;;;;;;5071293;28;20032;-80
2022/08/10 04:13:39;;;;;;;0.20;0.20;;;15.70;99.90;;;;;;5065745;28;20036;-80
2022/08/10 04:16:05;;;;;;;0.20;0.20;;;15.70;99.90;;;;;;5078591;28;20096;-80
2022/08/10 04:18:32;;;;;;;0.20;0.20;;;15.80;99.90;;;;;;5059372;28;20041;-80
2022/08/10 04:21:05;;;;;;;0.10;0.10;;;15.80;99.90;;;;;;5068723;28;20029;-80
2022/08/10 04:23:35;;;;;;;0.20;0.20;;;15.80;99.90;;;;;;5063073;28;20044;-80
2022/08/10 04:26:01;;;;;;;0.10;0.10;;;15.90;99.90;;;;;;5081139;28;20665;-80
2022/08/10 04:28:27;;;;;;;0.17;0.17;;;15.90;99.90;;;;;;5066511;28;20068;-79
2022/08/10 04:30:54;;;;;;;0.20;0.20;;;15.90;99.90;;;;;;5069636;28;20404;-79
2022/08/10 04:33:22;;;;;;;0.10;0.10;;;15.90;99.90;;;;;;5081855;28;20047;-79
2022/08/10 04:35:50;;;;;;;0.20;0.20;;;15.90;99.90;;;;;;5072733;28;20142;-79
2022/08/10 04:38:17;;;;;;;0.20;0.20;;;16.00;99.90;;;;;;5067479;28;20400;-80
2022/08/10 04:40:45;;;;;;;0.20;0.20;;;16.00;99.90;;;;;;5071035;28;20045;-79
2022/08/10 04:43:13;;;;;;;0.13;0.13;;;16.00;99.90;;;;;;5067861;28;20488;-80
2022/08/10 04:45:43;;;;;;;0.10;0.10;;;16.00;99.90;;;;;;5077241;28;20045;-80
2022/08/10 04:48:09;;;;;;;0.10;0.10;;;16.10;99.90;;;;;;5058499;28;20092;-80
2022/08/10 04:50:34;;;;;;;0.20;0.20;;;16.10;99.90;;;;;;5076606;28;20076;-80
2022/08/10 04:53:00;;;;;;;0.20;0.20;;;16.00;99.90;;;;;;5077078;28;20032;-79
2022/08/10 04:55:29;;;;;;;0.20;0.20;;;16.00;99.90;;;;;;5103217;28;20044;-80
2022/08/10 04:57:54;;;;;;;0.20;0.20;;;16.10;99.90;;;;;;5078878;28;20036;-79
2022/08/10 05:00:20;;;;;;;0.20;0.20;;;16.20;99.90;;;;;;5089717;28;20054;-78
2022/08/10 05:02:46;;;;;;;0.20;0.20;;;16.20;99.90;;;;;;5067696;28;20509;-79
2022/08/10 05:05:12;;;;;;;0.10;0.10;;;16.20;99.90;;;;;;5073950;28;20480;-79
2022/08/10 05:07:37;;;;;;;0.20;0.20;;;16.20;99.90;;;;;;5064725;28;20039;-79
2022/08/10 05:10:03;;;;;;;0.10;0.10;;;16.20;99.90;;;;;;5063197;28;20049;-79
2022/08/10 05:12:30;;;;;;;0.20;0.20;;;16.30;99.90;;;;;;5060388;28;20601;-79
2022/08/10 05:14:56;;;;;;;0.20;0.20;;;16.30;99.90;;;;;;5069808;28;20062;-80
2022/08/10 05:17:22;;;;;;;0.20;0.20;;;16.30;99.90;;;;;;5069183;28;20032;-79
2022/08/10 05:19:48;;;;;;;0.20;0.20;;;16.30;99.90;;;;;;5050043;28;20416;-80
2022/08/10 05:22:13;;;;;;;0.20;0.20;;;16.40;99.90;;;;;;5052023;28;20044;-81
2022/08/10 05:24:39;;;;;;;0.20;0.20;;;16.20;99.90;;;;;;5068782;28;20495;-81
2022/08/10 05:27:08;;;;;;;0.20;0.20;;;16.50;99.90;;;;;;5066943;28;20037;-80
2022/08/10 05:29:34;;;;;;;0.20;0.20;;;16.50;99.90;;;;;;5068699;28;20047;-80
2022/08/10 05:31:59;;;;;;;0.10;0.10;;;16.50;99.90;;;;;;5070501;28;20044;-81
2022/08/10 05:34:27;;;;;;;0.10;0.10;;;16.60;99.90;;;;;;5082377;28;20040;-81
2022/08/10 05:36:54;;;;;;;0.20;0.20;;;16.70;99.90;;;;;;5075053;28;20036;-81
2022/08/10 05:39:21;;;;;;;0.20;0.20;;;16.70;99.90;;;;;;5059801;28;20075;-81
2022/08/10 05:41:50;;;;;;;0.20;0.20;;;16.70;99.90;;;;;;5071151;28;20536;-80
2022/08/10 05:44:16;;;;;;;0.20;0.20;;;16.80;99.90;;;;;;5072264;28;20573;-81
2022/08/10 05:46:42;;;;;;;0.20;0.20;;;16.80;99.90;;;;;;5087971;28;20123;-81
2022/08/10 05:49:07;;;;;;;0.20;0.20;;;17.10;99.90;;;;;;5068472;28;20041;-80
2022/08/10 05:51:33;;;;;;;0.20;0.20;;;16.90;99.90;;;;;;5069906;28;20044;-81
2022/08/10 05:54:03;;;;;;;0.17;0.17;;;17.00;99.90;;;;;;5054202;28;20090;-81
2022/08/10 05:56:30;;;;;;;0.30;0.20;;;17.10;99.90;;;;;;5073236;28;20055;-81
2022/08/10 05:58:56;;;;;;;0.20;0.20;;;17.10;99.90;;;;;;5076439;28;20488;-81
2022/08/10 06:01:26;;;;;;;0.20;0.20;;;17.20;99.90;;;;;;5054716;28;20048;-81
2022/08/10 06:03:58;;;;;;;0.20;0.20;;;17.20;99.90;;;;;;5059453;28;20052;-86
2022/08/10 06:06:26;;;;;;;0.20;0.20;;;17.20;99.90;;;;;;5055211;28;20037;-84
2022/08/10 06:08:53;;;;;;;0.20;0.20;;;17.30;99.90;;;;;;5071764;28;20041;-87
2022/08/10 06:11:21;;;;;;;0.20;0.20;;;17.40;99.90;;;;;;5065097;28;20404;-85
2022/08/10 06:16:33;;;;;;;0.10;0.10;;;17.50;99.90;;;;;;5056276;28;21781;-87
2022/08/10 06:18:59;;;;;;;0.20;0.20;;;17.50;99.90;;;;;;5065978;28;20060;-86
2022/08/10 06:21:26;;;;;;;0.10;0.10;;;17.60;99.90;;;;;;5056571;28;20041;-87
2022/08/10 06:23:53;;;;;;;0.13;0.13;;;17.70;99.90;;;;;;5053940;28;20059;-87
2022/08/10 06:26:19;;;;;;;0.10;0.10;;;17.70;99.90;;;;;;5077533;28;20036;-87
2022/08/10 06:28:54;;;;;;;0.20;0.20;;;17.80;99.90;;;;;;5078881;28;20048;-86
2022/08/10 06:31:20;;;;;;;0.20;0.20;;;17.90;99.90;;;;;;5063515;28;20120;-87
2022/08/10 06:33:47;;;;;;;0.20;0.20;;;18.00;99.90;;;;;;5068021;28;20477;-86
2022/08/10 06:36:15;;;;;;;0.20;0.20;;;17.90;99.90;;;;;;5066870;28;20040;-85
2022/08/10 06:38:42;;;;;;;0.20;0.20;;;18.10;99.90;;;;;;5076322;28;20063;-85
2022/08/10 06:41:24;;;;;;;0.20;0.20;;;18.20;99.90;;;;;;5070491;28;20079;-84
2022/08/10 06:43:59;;;;;;;0.15;0.15;;;18.30;99.90;;;;;;5058701;28;20048;-85
2022/08/10 06:46:26;;;;;;;0.20;0.20;;;18.30;99.90;;;;;;5055235;28;20047;-85
2022/08/10 06:48:57;;;;;;;0.20;0.20;;;18.30;99.90;;;;;;5064322;28;20037;-86
2022/08/10 06:51:28;;;;;;;0.20;0.20;;;18.30;99.90;;;;;;5058408;28;20044;-85
2022/08/10 06:53:58;;;;;;;0.20;0.20;;;18.40;99.90;;;;;;5059907;28;20446;-84
2022/08/10 06:56:26;;;;;;;0.20;0.20;;;18.50;99.90;;;;;;5061005;28;20044;-85
2022/08/10 06:59:04;;;;;;;0.13;0.13;;;18.60;99.90;;;;;;5050490;28;20087;-86
2022/08/10 07:01:33;;;;;;;0.13;0.13;;;18.70;99.90;;;;;;5066206;28;20049;-83
2022/08/10 07:04:01;;;;;;;0.13;0.13;;;18.70;99.90;;;;;;5065369;28;20044;-85
2022/08/10 07:06:28;;;;;;;0.15;0.15;;;18.80;99.90;;;;;;5068768;28;20109;-84
2022/08/10 07:08:55;;;;;;;0.10;0.10;;;18.80;99.90;;;;;;5067918;28;20056;-85
2022/08/10 07:11:22;;;;;;;0.20;0.20;;;18.90;99.90;;;;;;5066769;28;20043;-86
2022/08/10 07:13:49;;;;;;;0.20;0.20;;;18.90;99.90;;;;;;5060219;28;20052;-84
2022/08/10 07:16:17;;;;;;;0.20;0.20;;;18.90;99.90;;;;;;5070165;28;20127;-84
2022/08/10 07:18:44;;;;;;;0.20;0.20;;;19.00;99.90;;;;;;5067108;28;20052;-84
2022/08/10 07:21:12;;;;;;;0.10;0.10;;;19.10;99.90;;;;;;5055488;28;20132;-84
2022/08/10 07:23:39;;;;;;;0.20;0.20;;;19.10;99.90;;;;;;5052537;28;20481;-86
2022/08/10 07:26:08;;;;;;;0.20;0.20;;;19.10;99.90;;;;;;5064717;28;20063;-85
2022/08/10 07:28:37;;;;;;;0.20;0.20;;;19.20;99.90;;;;;;5063224;28;20373;-84
2022/08/10 07:31:03;;;;;;;0.20;0.20;;;19.20;99.90;;;;;;5049161;28;20068;-85
2022/08/10 07:33:30;;;;;;;0.10;0.10;;;19.30;99.90;;;;;;5062421;28;20044;-85
2022/08/10 07:35:57;;;;;;;0.20;0.20;;;19.40;99.90;;;;;;5056684;28;20369;-84
2022/08/10 07:38:26;;;;;;;0.10;0.10;;;19.40;99.90;;;;;;5063415;28;20059;-84
2022/08/10 07:40:53;;;;;;;0.20;0.20;;;19.40;99.90;;;;;;5070732;28;20097;-85
2022/08/10 07:43:22;;;;;;;0.20;0.20;;;19.50;99.90;;;;;;5072214;28;20048;-84
2022/08/10 07:45:49;;;;;;;0.20;0.20;;;19.50;99.90;;;;;;5071079;28;20040;-85
2022/08/10 07:48:28;;;;;;;0.20;0.20;;;19.60;99.90;;;;;;5072505;28;20039;-83
2022/08/10 07:51:00;;;;;;;0.20;0.20;;;19.60;99.90;;;;;;5056322;28;20076;-85
2022/08/10 07:53:33;;;;;;;0.20;0.20;;;19.60;99.90;;;;;;5052636;28;20049;-86
2022/08/10 07:56:01;;;;;;;0.20;0.20;;;19.70;99.90;;;;;;5069410;28;20048;-87
2022/08/10 07:58:35;;;;;;;0.20;0.20;;;19.80;99.90;;;;;;5055470;28;20052;-86
2022/08/10 08:01:01;;;;;;;0.20;0.20;;;19.90;99.90;;;;;;5055652;28;20045;-85
2022/08/10 08:03:29;;;;;;;0.20;0.20;;;19.90;99.90;;;;;;5060885;28;20067;-83
2022/08/10 08:05:56;;;;;;;0.20;0.20;;;19.80;99.90;;;;;;5053855;28;20052;-84
2022/08/10 08:08:27;;;;;;;0.20;0.20;;;20.00;99.90;;;;;;5053243;28;20056;-85
2022/08/10 08:10:56;;;;;;;0.30;0.30;;;20.10;99.90;;;;;;5066585;28;20032;-84
2022/08/10 08:13:23;;;;;;;0.20;0.20;;;20.10;99.90;;;;;;5072469;28;20052;-84
2022/08/10 08:15:51;;;;;;;0.15;0.15;;;20.20;99.90;;;;;;5067523;28;20632;-85
2022/08/10 08:18:20;;;;;;;0.20;0.20;;;20.20;99.90;;;;;;5052133;28;20115;-84
2022/08/10 08:20:47;;;;;;;0.20;0.20;;;20.30;99.90;;;;;;5056138;28;20033;-85
2022/08/10 08:23:13;;;;;;;0.20;0.20;;;20.30;99.90;;;;;;5068318;28;20044;-85
2022/08/10 08:25:42;;;;;;;0.15;0.15;;;20.40;99.90;;;;;;5071478;28;20048;-85
2022/08/10 08:28:10;;;;;;;0.15;0.15;;;20.40;99.90;;;;;;5072547;28;20066;-84
2022/08/10 08:30:37;;;;;;;0.20;0.20;;;20.50;99.90;;;;;;5071492;28;20405;-84
2022/08/10 08:33:05;;;;;;;0.20;0.20;;;20.50;99.90;;;;;;5073643;28;20504;-82
2022/08/10 08:35:31;;;;;;;0.20;0.20;;;20.60;99.90;;;;;;5072824;28;20044;-82
2022/08/10 08:37:59;;;;;;;0.20;0.20;;;20.60;99.90;;;;;;5065145;28;20369;-82
2022/08/10 08:40:32;;;;;;;0.20;0.20;;;20.70;99.90;;;;;;5067845;28;20039;-84
2022/08/10 08:43:22;;;;;;;0.10;0.10;;;20.80;99.90;;;;;;5067032;28;20109;-82
2022/08/10 08:46:08;;;;;;;0.17;0.17;;;20.80;99.90;;;;;;5079752;28;20033;-83
2022/08/10 08:48:56;;;;;;;0.13;0.13;;;20.90;99.90;;;;;;5089147;28;20053;-81
2022/08/10 08:51:39;;;;;;;0.15;0.15;;;20.90;99.90;;;;;;5067967;28;20044;-83
2022/08/10 08:54:33;;;;;;;0.20;0.20;;;21.00;99.90;;;;;;5070242;28;20055;-83
2022/08/10 08:57:18;;;;;;;0.20;0.20;;;21.00;99.90;;;;;;5070016;28;20048;-83
2022/08/10 09:00:09;;;;;;;0.20;0.20;;;21.20;99.90;;;;;;5060155;28;20040;-83
2022/08/10 09:03:09;;;;;;;0.20;0.20;;;21.20;99.90;;;;;;5073333;28;20056;-82
2022/08/10 09:06:04;;;;;;;0.20;0.20;;;21.20;99.90;;;;;;5068639;28;20033;-81
2022/08/10 09:08:51;;;;;;;0.20;0.20;;;21.30;99.90;;;;;;5067125;28;20544;-82
2022/08/10 09:11:28;;;;;;;0.20;0.20;;;21.40;99.90;;;;;;5064614;28;20045;-83
2022/08/10 09:14:13;;;;;;;0.20;0.20;;;21.40;99.90;;;;;;5067746;28;20045;-82
2022/08/10 09:17:06;;;;;;;0.20;0.20;;;21.50;99.90;;;;;;5069041;28;20087;-82
2022/08/10 09:19:42;;;;;;;0.15;0.15;;;21.50;99.90;;;;;;5071357;28;20040;-83
2022/08/10 09:22:23;;;;;;;0.20;0.20;;;21.60;99.90;;;;;;5070405;28;20037;-83
2022/08/10 09:24:57;;;;;;;0.20;0.20;;;21.60;99.90;;;;;;5087772;28;20050;-83
2022/08/10 09:27:35;;;;;;;0.20;0.20;;;21.70;99.90;;;;;;5069994;28;20045;-85
2022/08/10 09:30:07;;;;;;;0.10;0.10;;;21.70;99.90;;;;;;5080505;28;20044;-83
2022/08/10 09:32:59;;;;;;;0.20;0.20;;;21.80;99.90;;;;;;5061917;28;20040;-82
2022/08/10 09:35:47;;;;;;;0.20;0.20;;;21.80;99.90;;;;;;5060116;28;20190;-82
2022/08/10 09:38:27;;;;;;;0.20;0.20;;;21.90;99.90;;;;;;5065276;28;20052;-83
2022/08/10 09:40:56;;;;;;;0.30;0.30;;;21.90;99.90;;;;;;5069703;28;20450;-83
2022/08/10 09:43:37;;;;;;;0.20;0.20;;;22.00;99.90;;;;;;5062359;28;20086;-83
2022/08/10 09:46:21;;;;;;;0.20;0.20;;;22.00;99.90;;;;;;5067278;28;20393;-83
2022/08/10 09:49:01;;;;;;;0.20;0.20;;;22.10;99.90;;;;;;5066792;28;20048;-83
2022/08/10 09:51:53;;;;;;;0.28;0.28;;;22.10;99.90;;;;;;5082322;28;20404;-82
2022/08/10 09:54:41;;;;;;;0.20;0.20;;;22.20;99.90;;;;;;5050573;28;20554;-83
2022/08/10 09:57:23;;;;;;;0.13;0.13;;;22.30;99.90;;;;;;5051920;28;20234;-83
2022/08/10 10:00:00;;;;;;;0.20;0.20;;;22.30;99.90;;;;;;5051579;28;20041;-83
2022/08/10 10:02:34;;;;;;;0.20;0.20;;;22.40;99.90;;;;;;5055309;28;20049;-83
2022/08/10 10:05:28;;;;;;;0.20;0.20;;;22.40;99.90;;;;;;5070001;28;20068;-83
2022/08/10 10:08:13;;;;;;;0.20;0.20;;;22.50;99.90;;;;;;5057667;28;20490;-85
2022/08/10 10:11:14;;;;;;;0.20;0.20;;;22.50;99.90;;;;;;5072877;28;20052;-84
2022/08/10 10:13:56;;;;;;;0.25;0.25;;;22.60;99.90;;;;;;5039003;28;20048;-83
2022/08/10 10:16:49;;;;;;;0.20;0.20;;;22.60;99.90;;;;;;5056734;28;20056;-85
2022/08/10 10:19:42;;;;;;;0.20;0.20;;;22.70;99.90;;;;;;5052794;28;20040;-84
2022/08/10 10:22:25;;;;;;;0.20;0.20;;;22.80;99.90;;;;;;5049331;28;20044;-83
2022/08/10 10:25:00;;;;;;;0.10;0.10;;;22.90;99.90;;;;;;5060279;28;20049;-83
2022/08/10 10:27:32;;;;;;;0.20;0.20;;;22.90;99.90;;;;;;5071120;28;20507;-83
2022/08/10 10:30:08;;;;;;;0.20;0.20;;;23.00;99.90;;;;;;5069006;28;20078;-84
2022/08/10 10:32:33;;;;;;;0.20;0.20;;;23.00;99.90;;;;;;5063743;28;20120;-84
2022/08/10 10:35:15;;;;;;;0.20;0.20;;;23.10;99.90;;;;;;5052024;28;20511;-86
2022/08/10 10:37:41;;;;;;;;;;;23.10;99.90;;;;;;5066935;28;20049;-83
2022/08/10 10:40:08;;;;;;;0.20;0.20;;;23.10;99.90;;;;;;5060808;28;19920;-83
2022/08/10 10:42:46;;;;;;;0.20;0.20;;;23.20;99.90;;;;;;5086329;28;20047;-83
2022/08/10 10:45:38;;;;;;;0.20;0.20;;;23.20;99.90;;;;;;5060697;28;20044;-83
2022/08/10 10:48:07;;;;;;;0.20;0.20;;;23.30;99.90;;;;;;5047007;28;20099;-84
2022/08/10 10:51:01;;;;;;;0.20;0.20;;;23.40;99.90;;;;;;5049882;28;20051;-84
2022/08/10 10:53:46;;;;;;;0.20;0.20;;;23.40;99.90;;;;;;5055600;28;20041;-84
2022/08/10 10:56:48;;;;;;;0.20;0.20;;;23.50;99.90;;;;;;5063341;28;20116;-84
2022/08/10 10:59:36;;;;;;;0.20;0.20;;;23.60;99.90;;;;;;5074230;28;20041;-84
2022/08/10 11:02:04;;;;;;;0.20;0.20;;;23.70;99.90;;;;;;5053285;28;20067;-85
2022/08/10 11:04:52;;;;;;;0.10;0.10;;;23.70;99.90;;;;;;5065242;28;20045;-83
2022/08/10 11:07:27;;;;;;;0.20;0.20;;;23.80;99.90;;;;;;5068787;28;20503;-83
2022/08/10 11:09:58;;;;;;;0.20;0.20;;;23.90;99.90;;;;;;5068050;28;20048;-84
2022/08/10 11:12:45;;;;;;;0.30;0.30;;;24.00;99.90;;;;;;5068775;28;20178;-83
2022/08/10 11:15:35;;;;;;;0.20;0.20;;;24.00;99.90;;;;;;5076335;28;20075;-85
2022/08/10 11:18:08;;;;;;;0.20;0.20;;;24.10;99.90;;;;;;5085614;28;20090;-84
2022/08/10 11:20:49;;;;;;;0.20;0.20;;;24.20;99.70;;;;;;5074759;28;20135;-84
2022/08/10 11:23:21;;;;;;;;;;;24.20;99.80;;;;;;5077378;28;20443;-83
2022/08/10 11:25:58;;;;;;;0.20;0.20;;;24.30;99.40;;;;;;5069062;28;19920;-83
2022/08/10 11:28:37;;;;;;;0.20;0.20;;;24.40;99.00;;;;;;5071967;28;20086;-83
2022/08/10 11:31:15;;;;;;;0.20;0.20;;;24.40;99.20;;;;;;5075465;28;20033;-83
2022/08/10 11:33:57;;;;;;;0.20;0.20;;;24.50;99.30;;;;;;5074219;28;20488;-83
2022/08/10 11:36:29;;;;;;;0.20;0.20;;;24.60;98.90;;;;;;5074011;28;20043;-83
2022/08/10 11:39:13;;;;;;;0.30;0.30;;;24.70;98.30;;;;;;5064533;28;20073;-84
2022/08/10 11:41:44;;;;;;;0.20;0.20;;;24.70;97.60;;;;;;5071816;28;20053;-83
2022/08/10 11:44:34;;;;;;;0.20;0.20;;;24.80;97.50;;;;;;5069708;28;20361;-85
2022/08/10 11:47:10;;;;;;;0.20;0.20;;;24.90;97.50;;;;;;5087084;28;20053;-84
2022/08/10 11:49:56;;;;;;;0.20;0.20;;;24.90;97.50;;;;;;5071948;28;20575;-82
2022/08/10 11:52:36;;;;;;;0.20;0.20;;;25.00;97.40;;;;;;5057419;28;20122;-84
2022/08/10 11:55:11;;;;;;;0.20;0.20;;;25.10;97.30;;;;;;5055885;28;20060;-82
2022/08/10 11:57:38;;;;;;;0.20;0.20;;;25.10;97.30;;;;;;5063744;28;20052;-83
2022/08/10 12:00:06;;;;;;;0.20;0.20;;;25.20;96.80;;;;;;5077406;28;20037;-83
2022/08/10 12:02:40;;;;;;;0.20;0.20;;;25.30;96.80;;;;;;5075982;28;20128;-84
2022/08/10 12:05:15;;;;;;;0.25;0.25;;;25.30;96.40;;;;;;5071371;28;20075;-83
2022/08/10 12:07:44;;;;;;;0.20;0.20;;;25.40;96.40;;;;;;5089065;28;20146;-83
2022/08/10 12:10:12;;;;;;;0.20;0.20;;;25.50;96.30;;;;;;5084419;28;20048;-83
2022/08/10 12:12:45;;;;;;;0.30;0.30;;;25.50;96.20;;;;;;5062629;28;20032;-83
2022/08/10 12:15:46;;;;;;;0.20;0.20;;;25.70;96.50;;;;;;5055462;28;20045;-84
2022/08/10 12:18:18;;;;;;;0.20;0.20;;;25.80;96.70;;;;;;5041276;28;20512;-81
2022/08/10 12:20:50;;;;;;;0.20;0.20;;;25.90;96.10;;;;;;5071107;28;20459;-82
2022/08/10 12:23:44;;;;;;;0.20;0.20;;;26.00;96.20;;;;;;5075991;28;20047;-83
2022/08/10 12:26:15;;;;;;;0.30;0.30;;;26.10;96.20;;;;;;5077702;28;20064;-83
2022/08/10 12:28:58;;;;;;;0.20;0.20;;;26.20;96.00;;;;;;5065708;28;20085;-83
2022/08/10 12:31:47;;;;;;;0.20;0.20;;;26.30;95.40;;;;;;5056560;28;20045;-83
2022/08/10 12:34:21;;;;;;;0.20;0.20;;;26.40;95.50;;;;;;5080543;28;20052;-84
2022/08/10 12:37:06;;;;;;;0.20;0.20;;;26.50;95.20;;;;;;5065507;28;20041;-84
2022/08/10 12:39:56;;;;;;;0.20;0.20;;;26.60;94.90;;;;;;5071474;28;20459;-83
2022/08/10 12:42:46;;;;;;;0.30;0.30;;;26.70;94.70;;;;;;5050251;28;20129;-84
2022/08/10 12:45:21;;;;;;;0.20;0.20;;;26.80;94.90;;;;;;5070406;28;20053;-82
2022/08/10 12:48:02;;;;;;;0.20;0.20;;;26.90;94.60;;;;;;5068122;28;20040;-82
2022/08/10 12:50:38;;;;;;;0.20;0.20;;;27.00;94.70;;;;;;5087345;28;20051;-83
2022/08/10 12:53:41;;;;;;;0.20;0.20;;;27.10;94.10;;;;;;5073068;28;20392;-82
2022/08/10 12:56:07;;;;;;;0.30;0.30;;;27.20;94.10;;;;;;5054451;28;20462;-83
2022/08/10 12:58:36;;;;;;;0.20;0.20;;;27.30;93.50;;;;;;5066416;28;20067;-83
2022/08/10 13:01:05;;;;;;;0.20;0.20;;;27.40;93.30;;;;;;5072362;28;20045;-84
2022/08/10 13:03:32;;;;;;;0.20;0.20;;;27.40;93.60;;;;;;5072567;28;20052;-83
2022/08/10 13:06:03;;;;;;;0.20;0.20;;;27.50;93.20;;;;;;5060266;28;20048;-82
2022/08/10 13:11:28;;;;;;;0.20;0.20;;;27.70;92.60;;;;;;5059510;28;20037;-82
2022/08/10 13:14:00;;;;;;;0.20;0.20;;;27.70;92.60;;;;;;5072081;28;20040;-82
2022/08/10 13:16:27;;;;;;;0.20;0.20;;;27.80;92.30;;;;;;5055942;28;20093;-81
2022/08/10 13:18:58;;;;;;;0.20;0.20;;;27.80;93.00;;;;;;5068066;28;20036;-82
2022/08/10 13:21:29;;;;;;;0.30;0.30;;;27.90;92.60;;;;;;5072251;28;20484;-84
2022/08/10 13:24:10;;;;;;;0.20;0.20;;;28.00;92.50;;;;;;5071941;28;20036;-82